createdAt,value
2022-12-25T00:01:39.363Z,7.17
2022-12-25T00:04:05.961Z,7.13
2022-12-25T00:06:32.504Z,7.14
2022-12-25T00:08:58.956Z,7.18
2022-12-25T00:11:25.505Z,7.20
2022-12-25T00:13:52.020Z,7.20
2022-12-25T00:16:22.102Z,7.22
2022-12-25T00:18:49.932Z,7.25
2022-12-25T00:21:17.336Z,7.20
2022-12-25T00:23:44.245Z,7.19
2022-12-25T00:26:13.092Z,7.17
2022-12-25T00:28:39.546Z,7.13
2022-12-25T00:31:11.260Z,7.10
2022-12-25T00:33:39.315Z,7.10
2022-12-25T00:36:06.907Z,7.11
2022-12-25T00:38:35.320Z,7.11
2022-12-25T00:41:16.877Z,7.10
2022-12-25T00:43:43.915Z,7.12
2022-12-25T00:46:12.458Z,7.11
2022-12-25T00:48:39.350Z,7.12
2022-12-25T00:51:08.689Z,7.11
2022-12-25T00:53:35.468Z,7.13
2022-12-25T00:56:05.400Z,7.16
2022-12-25T00:58:33.357Z,7.14
2022-12-25T01:01:00.031Z,7.14
2022-12-25T01:03:26.967Z,7.17
2022-12-25T01:05:59.387Z,7.17
2022-12-25T01:08:28.757Z,7.19
2022-12-25T01:11:00.531Z,7.22
2022-12-25T01:13:28.961Z,7.22
2022-12-25T01:15:55.534Z,7.25
2022-12-25T01:18:23.967Z,7.21
2022-12-25T01:20:50.724Z,7.18
2022-12-25T01:23:17.276Z,7.19
2022-12-25T01:25:43.725Z,7.16
2022-12-25T01:28:10.540Z,7.14
2022-12-25T01:30:36.931Z,7.13
2022-12-25T01:33:03.519Z,7.10
2022-12-25T01:35:29.955Z,7.06
2022-12-25T01:37:56.495Z,7.03
2022-12-25T01:40:22.902Z,7.05
2022-12-25T01:42:49.394Z,7.07
2022-12-25T01:45:37.252Z,7.09
2022-12-25T01:48:08.964Z,7.11
2022-12-25T01:50:37.411Z,7.13
2022-12-25T01:53:04.588Z,7.19
2022-12-25T01:55:33.297Z,7.19
2022-12-25T01:57:59.927Z,7.19
2022-12-25T02:00:26.364Z,7.17
2022-12-25T02:02:52.910Z,7.16
2022-12-25T02:05:30.132Z,7.20
2022-12-25T02:07:59.498Z,7.23
2022-12-25T02:10:25.938Z,7.25
2022-12-25T02:12:53.193Z,7.26
2022-12-25T02:15:22.168Z,7.27
2022-12-25T02:18:01.048Z,7.31
2022-12-25T02:20:58.998Z,7.33
2022-12-25T02:23:49.556Z,7.35
2022-12-25T02:26:36.992Z,7.37
2022-12-25T02:29:23.243Z,7.38
2022-12-25T02:32:14.540Z,7.38
2022-12-25T02:34:52.689Z,7.39
2022-12-25T02:37:37.695Z,7.38
2022-12-25T02:40:13.067Z,7.32
2022-12-25T02:43:12.931Z,7.35
2022-12-25T02:46:09.984Z,7.29
2022-12-25T02:49:00.582Z,7.29
2022-12-25T02:51:49.807Z,7.29
2022-12-25T02:54:39.584Z,7.30
2022-12-25T02:57:30.536Z,7.31
2022-12-25T03:00:18.635Z,7.26
2022-12-25T03:03:06.090Z,7.25
2022-12-25T03:05:55.943Z,7.25
2022-12-25T03:08:27.059Z,7.29
2022-12-25T03:11:30.922Z,7.26
2022-12-25T03:14:23.946Z,7.23
2022-12-25T03:16:54.076Z,7.21
2022-12-25T03:19:42.455Z,7.26
2022-12-25T03:22:35.409Z,7.31
2022-12-25T03:25:20.140Z,7.32
2022-12-25T03:27:53.277Z,7.25
2022-12-25T03:30:39.852Z,7.20
2022-12-25T03:33:43.354Z,7.19
2022-12-25T03:36:18.900Z,7.21
2022-12-25T03:39:34.993Z,7.25
2022-12-25T03:42:23.854Z,7.27
2022-12-25T03:45:25.038Z,7.27
2022-12-25T03:48:12.976Z,7.26
2022-12-25T03:51:13.162Z,7.21
2022-12-25T03:54:06.655Z,7.21
2022-12-25T03:56:53.885Z,7.18
2022-12-25T03:59:41.217Z,7.16
2022-12-25T04:02:26.563Z,7.19
2022-12-25T04:05:11.721Z,7.19
2022-12-25T04:07:57.145Z,7.19
2022-12-25T04:10:42.575Z,7.17
2022-12-25T04:13:28.006Z,7.16
2022-12-25T04:16:15.151Z,7.12
2022-12-25T04:19:00.278Z,7.17
2022-12-25T04:21:45.514Z,7.19
2022-12-25T04:24:40.876Z,7.27
2022-12-25T04:27:25.869Z,7.29
2022-12-25T04:30:10.703Z,7.29
2022-12-25T04:32:55.502Z,7.31
2022-12-25T04:35:40.357Z,7.30
2022-12-25T04:38:06.784Z,7.31
2022-12-25T04:40:33.227Z,7.33
2022-12-25T04:42:59.689Z,7.32
2022-12-25T04:45:26.175Z,7.31
2022-12-25T04:47:52.665Z,7.31
2022-12-25T04:50:19.141Z,7.30
2022-12-25T04:52:45.646Z,7.33
2022-12-25T04:55:12.250Z,7.32
2022-12-25T04:57:38.700Z,7.30
2022-12-25T05:00:06.193Z,7.29
2022-12-25T05:02:33.002Z,7.30
2022-12-25T05:04:59.653Z,7.27
2022-12-25T05:07:26.114Z,7.26
2022-12-25T05:09:52.720Z,7.24
2022-12-25T05:12:19.151Z,7.25
2022-12-25T05:14:45.603Z,7.25
2022-12-25T05:17:12.015Z,7.25
2022-12-25T05:19:38.517Z,7.25
2022-12-25T05:22:04.991Z,7.27
2022-12-25T05:24:31.453Z,7.21
2022-12-25T05:26:57.919Z,7.10
2022-12-25T05:29:24.385Z,7.09
2022-12-25T05:31:50.855Z,7.14
2022-12-25T05:34:17.296Z,7.10
2022-12-25T05:36:43.680Z,7.06
2022-12-25T05:39:10.120Z,6.98
2022-12-25T05:41:36.562Z,6.96
2022-12-25T05:44:03.126Z,6.92
2022-12-25T05:46:29.627Z,6.94
2022-12-25T05:48:56.083Z,6.88
2022-12-25T05:51:22.797Z,6.85
2022-12-25T05:53:49.220Z,6.83
2022-12-25T05:56:15.729Z,6.81
2022-12-25T05:58:42.285Z,6.84
2022-12-25T06:01:14.732Z,6.85
2022-12-25T06:03:41.328Z,6.85
2022-12-25T06:06:08.233Z,6.89
2022-12-25T06:08:35.013Z,6.90
2022-12-25T06:11:06.173Z,6.89
2022-12-25T06:13:33.780Z,6.86
2022-12-25T06:16:03.744Z,6.88
2022-12-25T06:18:30.203Z,6.80
2022-12-25T06:20:56.628Z,6.78
2022-12-25T06:23:23.135Z,6.77
2022-12-25T06:25:49.600Z,6.75
2022-12-25T06:28:16.146Z,6.69
2022-12-25T06:30:42.590Z,6.73
2022-12-25T06:33:09.002Z,6.66
2022-12-25T06:35:39.369Z,6.61
2022-12-25T06:38:06.114Z,6.61
2022-12-25T06:40:32.791Z,6.66
2022-12-25T06:42:59.240Z,6.65
2022-12-25T06:45:25.724Z,6.59
2022-12-25T06:47:52.153Z,6.58
2022-12-25T06:50:18.608Z,6.53
2022-12-25T06:52:45.081Z,6.49
2022-12-25T06:55:11.562Z,6.48
2022-12-25T06:57:38.051Z,6.46
2022-12-25T07:00:05.552Z,6.44
2022-12-25T07:02:33.326Z,6.45
2022-12-25T07:05:01.144Z,6.42
2022-12-25T07:07:27.566Z,6.43
2022-12-25T07:09:53.983Z,6.43
2022-12-25T07:12:23.668Z,6.43
2022-12-25T07:14:50.567Z,6.46
2022-12-25T07:17:17.590Z,6.44
2022-12-25T07:19:45.385Z,6.45
2022-12-25T07:22:12.710Z,6.47
2022-12-25T07:24:39.197Z,6.50
2022-12-25T07:27:06.179Z,6.52
2022-12-25T07:29:32.654Z,6.52
2022-12-25T07:31:59.410Z,6.56
2022-12-25T07:34:26.096Z,6.60
2022-12-25T07:36:54.484Z,6.61
2022-12-25T07:39:20.923Z,6.63
2022-12-25T07:41:47.340Z,6.65
2022-12-25T07:44:14.303Z,6.67
2022-12-25T07:46:40.726Z,6.70
2022-12-25T07:49:07.270Z,6.71
2022-12-25T07:51:34.006Z,6.76
2022-12-25T07:54:00.473Z,6.81
2022-12-25T07:56:27.240Z,6.80
2022-12-25T07:58:53.709Z,6.84
2022-12-25T08:01:25.114Z,6.87
2022-12-25T08:03:56.638Z,6.90
2022-12-25T08:06:26.746Z,6.96
2022-12-25T08:08:53.150Z,7.01
2022-12-25T08:11:19.671Z,7.05
2022-12-25T08:13:46.206Z,7.11
2022-12-25T08:16:12.765Z,7.18
2022-12-25T08:18:39.873Z,7.15
2022-12-25T08:21:10.447Z,7.16
2022-12-25T08:23:40.201Z,7.23
2022-12-25T08:26:08.696Z,7.24
2022-12-25T08:28:36.043Z,7.27
2022-12-25T08:31:20.123Z,7.30
2022-12-25T08:33:47.997Z,7.38
2022-12-25T08:36:15.048Z,7.40
2022-12-25T08:38:41.886Z,7.45
2022-12-25T08:41:09.049Z,7.53
2022-12-25T08:43:35.644Z,7.53
2022-12-25T08:46:02.676Z,7.57
2022-12-25T08:48:29.332Z,7.55
2022-12-25T08:50:56.323Z,7.55
2022-12-25T08:53:23.317Z,7.62
2022-12-25T08:55:49.891Z,7.64
2022-12-25T08:58:16.616Z,7.67
2022-12-25T09:00:43.314Z,7.73
2022-12-25T09:03:09.757Z,7.78
2022-12-25T09:05:37.177Z,7.81
2022-12-25T09:08:04.236Z,7.88
2022-12-25T09:10:31.289Z,7.92
2022-12-25T09:12:57.753Z,7.95
2022-12-25T09:15:24.164Z,7.97
2022-12-25T09:17:50.623Z,7.97
2022-12-25T09:20:17.052Z,8.05
2022-12-25T09:22:43.529Z,8.10
2022-12-25T09:25:10.303Z,8.14
2022-12-25T09:27:36.765Z,8.23
2022-12-25T09:30:04.275Z,8.28
2022-12-25T09:32:30.981Z,8.39
2022-12-25T09:34:57.479Z,8.51
2022-12-25T09:37:23.925Z,8.62
2022-12-25T09:39:50.363Z,8.70
2022-12-25T09:42:20.476Z,8.79
2022-12-25T09:44:52.712Z,8.91
2022-12-25T09:47:25.712Z,9.01
2022-12-25T09:50:11.373Z,9.13
2022-12-25T09:52:46.591Z,9.29
2022-12-25T09:55:20.633Z,9.43
2022-12-25T09:57:54.068Z,9.57
2022-12-25T10:00:23.332Z,9.73
2022-12-25T10:03:27.308Z,9.92
2022-12-25T10:06:24.962Z,10.12
2022-12-25T10:09:00.231Z,10.24
2022-12-25T10:11:46.179Z,10.36
2022-12-25T10:14:44.122Z,10.50
2022-12-25T10:17:36.872Z,10.66
2022-12-25T10:20:03.236Z,10.81
2022-12-25T10:22:44.245Z,10.84
2022-12-25T10:25:22.830Z,10.88
2022-12-25T10:27:56.862Z,10.93
2022-12-25T10:30:26.208Z,11.10
2022-12-25T10:32:53.168Z,11.24
2022-12-25T10:35:23.002Z,11.44
2022-12-25T10:37:58.715Z,11.60
2022-12-25T10:40:30.556Z,11.55
2022-12-25T10:43:25.426Z,11.61
2022-12-25T10:45:51.872Z,11.62
2022-12-25T10:48:22.712Z,11.70
2022-12-25T10:50:49.578Z,11.73
2022-12-25T10:53:20.842Z,11.80
2022-12-25T10:55:58.823Z,12.16
2022-12-25T10:58:25.870Z,12.25
2022-12-25T11:00:55.211Z,12.30
2022-12-25T11:03:24.910Z,12.32
2022-12-25T11:05:51.797Z,12.45
2022-12-25T11:08:21.717Z,12.49
2022-12-25T11:10:54.174Z,12.49
2022-12-25T11:13:25.136Z,12.60
2022-12-25T11:16:11.661Z,12.58
2022-12-25T11:18:48.337Z,12.61
2022-12-25T11:21:26.833Z,12.81
2022-12-25T11:24:05.016Z,12.76
2022-12-25T11:26:45.651Z,12.54
2022-12-25T11:29:35.123Z,12.49
2022-12-25T11:32:04.002Z,12.56
2022-12-25T11:34:36.073Z,12.60
2022-12-25T11:37:03.518Z,12.65
2022-12-25T11:39:32.621Z,12.79
2022-12-25T11:42:01.952Z,12.95
2022-12-25T11:44:34.655Z,13.11
2022-12-25T11:47:12.686Z,13.25
2022-12-25T11:49:50.305Z,13.25
2022-12-25T11:52:20.327Z,13.17
2022-12-25T11:55:18.284Z,13.01
2022-12-25T11:57:47.813Z,12.89
2022-12-25T12:00:16.250Z,12.97
2022-12-25T12:03:00.291Z,13.18
2022-12-25T12:05:35.504Z,13.23
2022-12-25T12:08:05.270Z,13.22
2022-12-25T12:11:15.927Z,13.13
2022-12-25T12:13:57.821Z,13.14
2022-12-25T12:16:24.629Z,13.17
2022-12-25T12:18:51.152Z,13.34
2022-12-25T12:21:17.519Z,13.41
2022-12-25T12:23:50.165Z,13.57
2022-12-25T12:26:23.401Z,13.69
2022-12-25T12:28:52.517Z,13.81
2022-12-25T12:31:19.171Z,13.90
2022-12-25T12:33:57.758Z,14.00
2022-12-25T12:36:35.503Z,13.89
2022-12-25T12:39:05.031Z,13.70
2022-12-25T12:41:49.198Z,13.54
2022-12-25T12:44:17.574Z,13.62
2022-12-25T12:46:57.973Z,13.78
2022-12-25T12:49:32.233Z,13.67
2022-12-25T12:52:27.161Z,13.79
2022-12-25T12:55:01.444Z,13.93
2022-12-25T12:57:32.746Z,13.79
2022-12-25T13:00:08.665Z,13.74
2022-12-25T13:03:14.854Z,13.56
2022-12-25T13:05:48.736Z,13.64
2022-12-25T13:08:47.164Z,13.70
2022-12-25T13:11:21.056Z,13.68
2022-12-25T13:13:49.464Z,13.87
2022-12-25T13:16:32.070Z,14.00
2022-12-25T13:19:04.151Z,14.08
2022-12-25T13:21:30.999Z,14.01
2022-12-25T13:23:59.920Z,13.82
2022-12-25T13:26:27.838Z,13.86
2022-12-25T13:28:55.991Z,13.98
2022-12-25T13:31:27.828Z,13.96
2022-12-25T13:34:31.775Z,13.79
2022-12-25T13:37:08.776Z,13.63
2022-12-25T13:39:37.063Z,13.52
2022-12-25T13:42:06.487Z,13.51
2022-12-25T13:44:47.941Z,13.48
2022-12-25T13:47:25.495Z,13.35
2022-12-25T13:49:57.774Z,13.20
2022-12-25T13:52:32.926Z,13.18
2022-12-25T13:55:14.208Z,13.06
2022-12-25T13:57:46.213Z,12.96
2022-12-25T14:00:58.041Z,12.92
2022-12-25T14:03:33.171Z,12.87
2022-12-25T14:06:02.174Z,12.86
2022-12-25T14:08:33.886Z,12.75
2022-12-25T14:11:05.564Z,12.62
2022-12-25T14:13:36.741Z,12.52
2022-12-25T14:16:04.059Z,12.51
2022-12-25T14:18:31.034Z,12.44
2022-12-25T14:21:06.036Z,12.23
2022-12-25T14:23:45.830Z,12.07
2022-12-25T14:26:24.446Z,11.94
2022-12-25T14:29:15.642Z,11.77
2022-12-25T14:31:44.874Z,11.56
2022-12-25T14:34:16.903Z,11.41
2022-12-25T14:36:43.553Z,11.33
2022-12-25T14:39:38.592Z,11.24
2022-12-25T14:42:18.784Z,11.07
2022-12-25T14:45:26.207Z,10.94
2022-12-25T14:47:56.228Z,10.92
2022-12-25T14:50:27.488Z,10.74
2022-12-25T14:52:54.325Z,10.62
2022-12-25T14:55:27.199Z,10.44
2022-12-25T14:58:05.960Z,10.38
2022-12-25T15:00:36.405Z,10.24
2022-12-25T15:03:07.817Z,10.03
2022-12-25T15:05:39.366Z,9.85
2022-12-25T15:08:08.801Z,9.65
2022-12-25T15:13:22.624Z,9.43
2022-12-25T15:15:54.592Z,9.35
2022-12-25T15:18:23.883Z,9.22
2022-12-25T15:20:54.214Z,9.14
2022-12-25T15:23:21.569Z,9.03
2022-12-25T15:25:48.740Z,9.04
2022-12-25T15:28:15.198Z,9.06
2022-12-25T15:30:41.669Z,9.05
2022-12-25T15:33:13.571Z,8.91
2022-12-25T15:35:40.046Z,8.83
2022-12-25T15:38:06.564Z,8.85
2022-12-25T15:40:33.093Z,8.76
2022-12-25T15:42:59.887Z,8.77
2022-12-25T15:45:29.156Z,8.68
2022-12-25T15:47:56.196Z,8.67
2022-12-25T15:50:22.868Z,8.59
2022-12-25T15:52:49.823Z,8.51
2022-12-25T15:55:16.469Z,8.49
2022-12-25T15:57:45.294Z,8.39
2022-12-25T16:00:18.984Z,8.39
2022-12-25T16:02:46.013Z,8.25
2022-12-25T16:05:12.758Z,8.26
2022-12-25T16:07:39.528Z,8.27
2022-12-25T16:10:10.741Z,8.20
2022-12-25T16:12:38.855Z,8.11
2022-12-25T16:15:05.883Z,8.07
2022-12-25T16:17:32.404Z,7.94
2022-12-25T16:19:58.917Z,7.99
2022-12-25T16:22:28.350Z,8.04
2022-12-25T16:24:54.800Z,8.05
2022-12-25T16:27:21.979Z,8.07
2022-12-25T16:29:49.042Z,8.03
2022-12-25T16:32:15.563Z,7.99
2022-12-25T16:34:42.207Z,7.97
2022-12-25T16:37:08.660Z,7.83
2022-12-25T16:39:35.147Z,7.62
2022-12-25T16:42:01.594Z,7.59
2022-12-25T16:44:28.019Z,7.59
2022-12-25T16:46:54.475Z,7.60
2022-12-25T16:49:21.118Z,7.60
2022-12-25T16:51:47.548Z,7.61
2022-12-25T16:54:14.248Z,7.55
2022-12-25T16:56:41.615Z,7.45
2022-12-25T16:59:08.112Z,7.33
2022-12-25T17:01:34.671Z,7.31
2022-12-25T17:04:01.553Z,7.30
2022-12-25T17:06:28.708Z,7.25
2022-12-25T17:08:59.942Z,7.31
2022-12-25T17:11:30.322Z,7.34
2022-12-25T17:14:03.320Z,7.36
2022-12-25T17:16:33.191Z,7.39
2022-12-25T17:19:07.805Z,7.31
2022-12-25T17:21:35.306Z,7.31
2022-12-25T17:24:04.024Z,7.33
2022-12-25T17:26:32.150Z,7.36
2022-12-25T17:28:58.634Z,7.32
2022-12-25T17:31:25.164Z,7.25
2022-12-25T17:33:51.759Z,7.20
2022-12-25T17:36:20.670Z,7.27
2022-12-25T17:38:47.911Z,7.33
2022-12-25T17:41:16.305Z,7.36
2022-12-25T17:43:44.244Z,7.40
2022-12-25T17:46:15.878Z,7.35
2022-12-25T17:48:43.243Z,7.40
2022-12-25T17:51:12.656Z,7.34
2022-12-25T17:53:42.028Z,7.27
2022-12-25T17:56:12.594Z,7.18
2022-12-25T17:58:39.664Z,7.17
2022-12-25T18:01:11.588Z,7.14
2022-12-25T18:03:38.106Z,7.13
2022-12-25T18:06:06.601Z,7.10
2022-12-25T18:08:39.009Z,7.03
2022-12-25T18:11:09.443Z,7.00
2022-12-25T18:13:37.773Z,7.00
2022-12-25T18:16:06.381Z,6.98
2022-12-25T18:18:34.126Z,7.06
2022-12-25T18:21:01.717Z,7.11
2022-12-25T18:23:28.254Z,7.10
2022-12-25T18:25:54.714Z,7.08
2022-12-25T18:28:22.866Z,7.05
2022-12-25T18:30:49.326Z,7.13
2022-12-25T18:33:15.743Z,7.10
2022-12-25T18:35:43.600Z,7.13
2022-12-25T18:38:11.213Z,7.24
2022-12-25T18:40:45.265Z,7.30
2022-12-25T18:43:12.704Z,7.31
2022-12-25T18:45:39.182Z,7.25
2022-12-25T18:48:06.452Z,7.27
2022-12-25T18:50:34.630Z,7.24
2022-12-25T18:53:01.752Z,7.37
2022-12-25T18:55:28.268Z,7.51
2022-12-25T18:57:55.441Z,7.46
2022-12-25T19:00:22.313Z,7.42
2022-12-25T19:02:49.576Z,7.31
2022-12-25T19:05:16.806Z,7.33
2022-12-25T19:07:43.261Z,7.28
2022-12-25T19:10:10.443Z,7.20
2022-12-25T19:12:37.104Z,7.26
2022-12-25T19:15:03.826Z,7.26
2022-12-25T19:17:32.115Z,7.21
2022-12-25T19:19:58.941Z,7.19
2022-12-25T19:22:26.689Z,7.09
2022-12-25T19:24:53.120Z,7.01
2022-12-25T19:27:19.637Z,7.02
2022-12-25T19:29:46.093Z,6.96
2022-12-25T19:32:12.575Z,6.88
2022-12-25T19:34:39.077Z,6.78
2022-12-25T19:37:05.934Z,6.73
2022-12-25T19:39:32.580Z,6.70
2022-12-25T19:41:59.002Z,6.73
2022-12-25T19:44:25.498Z,6.65
2022-12-25T19:46:52.001Z,6.69
2022-12-25T19:49:18.419Z,6.70
2022-12-25T19:51:46.272Z,6.67
2022-12-25T19:54:17.156Z,6.59
2022-12-25T19:56:43.690Z,6.53
2022-12-25T19:59:11.806Z,6.54
2022-12-25T20:01:39.123Z,6.51
2022-12-25T20:04:07.958Z,6.39
2022-12-25T20:06:36.365Z,6.35
2022-12-25T20:09:06.596Z,6.28
2022-12-25T20:11:35.217Z,6.27
2022-12-25T20:14:01.761Z,6.25
2022-12-25T20:16:28.432Z,6.22
2022-12-25T20:18:56.403Z,6.14
2022-12-25T20:21:23.623Z,6.17
2022-12-25T20:23:52.128Z,6.14
2022-12-25T20:26:21.076Z,6.12
2022-12-25T20:28:47.870Z,6.11
2022-12-25T20:31:17.388Z,6.05
2022-12-25T20:33:44.342Z,6.08
2022-12-25T20:36:11.580Z,6.02
2022-12-25T20:38:38.259Z,5.89
2022-12-25T20:43:54.591Z,5.88
2022-12-25T20:46:22.180Z,5.94
2022-12-25T20:48:48.750Z,6.07
2022-12-25T20:51:18.435Z,6.09
2022-12-25T20:53:45.796Z,6.10
2022-12-25T20:56:14.315Z,6.13
2022-12-25T20:58:40.771Z,6.13
2022-12-25T21:01:10.103Z,6.10
2022-12-25T21:03:37.354Z,6.07
2022-12-25T21:06:04.267Z,6.03
2022-12-25T21:08:31.086Z,5.99
2022-12-25T21:11:02.612Z,5.97
2022-12-25T21:13:31.794Z,5.89
2022-12-25T21:15:59.576Z,5.90
2022-12-25T21:18:28.125Z,5.87
2022-12-25T21:20:57.327Z,5.85
2022-12-25T21:23:26.571Z,5.82
2022-12-25T21:25:54.642Z,5.79
2022-12-25T21:28:22.291Z,5.71
2022-12-25T21:30:48.734Z,5.65
2022-12-25T21:33:33.764Z,5.64
2022-12-25T21:36:10.373Z,5.58
2022-12-25T21:38:37.638Z,5.53
2022-12-25T21:41:10.064Z,5.53
2022-12-25T21:44:07.009Z,5.52
2022-12-25T21:46:34.145Z,5.52
2022-12-25T21:49:00.840Z,5.49
2022-12-25T21:51:51.231Z,5.50
2022-12-25T21:54:19.037Z,5.47
2022-12-25T21:56:47.493Z,5.47
2022-12-25T21:59:17.247Z,5.50
2022-12-25T22:01:44.654Z,5.53
2022-12-25T22:04:12.753Z,5.51
2022-12-25T22:06:57.912Z,5.55
2022-12-25T22:09:24.635Z,5.58
2022-12-25T22:12:09.480Z,5.54
2022-12-25T22:14:54.689Z,5.53
2022-12-25T22:17:49.850Z,5.56
2022-12-25T22:20:22.642Z,5.57
2022-12-25T22:22:49.643Z,5.58
2022-12-25T22:25:16.668Z,5.64
2022-12-25T22:27:45.020Z,5.61
2022-12-25T22:30:17.836Z,5.60
2022-12-25T22:32:44.903Z,5.59
2022-12-25T22:35:12.365Z,5.62
2022-12-25T22:37:40.333Z,5.57
2022-12-25T22:40:08.043Z,5.53
2022-12-25T22:42:35.073Z,5.51
2022-12-25T22:45:01.879Z,5.56
2022-12-25T22:47:28.328Z,5.57
2022-12-25T22:49:54.789Z,5.59
2022-12-25T22:52:21.295Z,5.61
2022-12-25T22:54:47.753Z,5.62
2022-12-25T22:57:14.661Z,5.60
2022-12-25T22:59:41.249Z,5.53
2022-12-25T23:02:08.309Z,5.52
2022-12-25T23:04:35.159Z,5.51
2022-12-25T23:07:02.050Z,5.52
2022-12-25T23:09:28.687Z,5.52
2022-12-25T23:11:58.327Z,5.54
2022-12-25T23:14:41.597Z,5.53
2022-12-25T23:17:31.089Z,5.50
2022-12-25T23:20:17.652Z,5.39
2022-12-25T23:23:03.100Z,5.37
2022-12-25T23:25:48.460Z,5.27
2022-12-25T23:28:34.926Z,5.20
2022-12-25T23:31:01.343Z,5.18
2022-12-25T23:33:27.747Z,5.14
2022-12-25T23:35:54.197Z,5.16
2022-12-25T23:38:20.669Z,5.11
2022-12-25T23:40:47.089Z,5.09
2022-12-25T23:43:13.551Z,5.14
2022-12-25T23:45:40.162Z,5.12
2022-12-25T23:48:06.630Z,5.06
2022-12-25T23:50:33.728Z,5.03
2022-12-25T23:53:00.141Z,5.00
2022-12-25T23:55:26.639Z,4.96
2022-12-25T23:57:53.092Z,4.94
